Lindong, China
Current Conditions -  °F | °C
As of 4:00 PM on Wednesday 22 Oct 2014 (Local Time) from ZYTX Reporting Station
Clear Clear  
Wind Chill: 59°   Ceiling: Unl
Heat Index: 59°   Visibility: 6mi
Dew Point:   Wind: 2mph
Humidity: 10%   Direction: NA
Pressure: 30.09"   Gusts: NA
Location:  43.98°N, 119.4°E
Report Text: ZYTX 220800Z VRB01MPS CAVOK 15/M17 Q1019 NOSIG
Loading
Personal Weather Stations






























Interactive Weather Map
Tropical Storm Tracking
New forecast layout! Learn more

10-Day Weather Forecast

Advertisements
Track Severe Weather on mobile